Time;durP1;ratioP1;P1;durP2;ratioP2;P2;SDS_P1;SDS_P2;PMS_P1;PMS_P2;Temp;Humidity;BMP_temperature;BMP_pressure;BME280_temperature;BME280_humidity;BME280_pressure;Samples;Min_cycle;Max_cycle;Signal;HPM_P1;HPM_P2
2023/10/17 00:00:45;;;;;;;2.38;1.13;;;;;;;8.33;54.79;97265.75;4949624;23;20188;-81
2023/10/17 00:03:11;;;;;;;2.17;1.38;;;;;;;8.32;54.75;97274.53;4937278;28;20165;-80
2023/10/17 00:05:41;;;;;;;4.57;1.58;;;;;;;8.68;54.42;97264.16;4917881;28;20195;-79
2023/10/17 00:08:09;;;;;;;4.05;2.20;;;;;;;8.90;53.56;97277.31;4933214;28;20678;-80
2023/10/17 00:10:46;;;;;;;3.28;2.03;;;;;;;8.92;53.73;97275.25;4970180;28;20175;-80
2023/10/17 00:13:24;;;;;;;5.00;2.05;;;;;;;8.87;53.69;97269.97;4937287;28;20297;-81
2023/10/17 00:15:50;;;;;;;3.33;2.03;;;;;;;8.89;53.54;97271.31;4930305;28;20249;-80
2023/10/17 00:18:17;;;;;;;3.70;2.65;;;;;;;8.91;53.39;97266.69;4920681;28;20688;-80
2023/10/17 00:20:43;;;;;;;5.00;2.80;;;;;;;8.87;53.75;97264.78;4926983;28;20289;-80
2023/10/17 00:23:14;;;;;;;4.53;2.95;;;;;;;8.56;54.75;97271.97;4911598;28;20326;-79
2023/10/17 00:25:42;;;;;;;5.68;2.60;;;;;;;8.56;54.62;97261.59;4902798;28;20618;-79
2023/10/17 00:28:10;;;;;;;4.60;2.50;;;;;;;8.53;54.18;97264.63;4915045;28;20622;-80
2023/10/17 00:30:37;;;;;;;5.75;2.85;;;;;;;8.75;54.38;97275.97;4944763;28;20333;-79
2023/10/17 00:33:05;;;;;;;3.38;2.72;;;;;;;8.81;54.07;97276.88;4927900;28;20168;-80
2023/10/17 00:35:38;;;;;;;5.03;2.72;;;;;;;8.67;54.39;97276.34;4929463;28;20203;-80
2023/10/17 00:38:07;;;;;;;3.72;2.40;;;;;;;8.60;53.60;97260.09;4944811;28;20250;-82
2023/10/17 00:43:11;;;;;;;3.92;2.40;;;;;;;8.78;54.02;97262.53;4942484;28;20616;-81
2023/10/17 00:45:37;;;;;;;4.47;2.40;;;;;;;8.85;53.76;97253.84;4943550;28;20211;-78
2023/10/17 00:48:26;;;;;;;4.32;2.78;;;;;;;8.85;53.97;97256.44;4936322;28;20216;-81
2023/10/17 00:50:52;;;;;;;4.03;2.88;;;;;;;8.80;53.83;97250.09;4945057;28;20611;-79
2023/10/17 00:53:18;;;;;;;5.53;3.22;;;;;;;8.63;53.95;97233.69;4942249;28;20199;-80
2023/10/17 00:55:50;;;;;;;4.30;2.13;;;;;;;8.55;54.06;97231.44;4926126;28;20989;-81
2023/10/17 00:58:18;;;;;;;6.10;2.38;;;;;;;8.56;54.47;97238.22;4927271;28;20200;-80
2023/10/17 01:00:49;;;;;;;3.38;2.25;;;;;;;8.43;54.78;97229.69;4951355;28;20226;-81
2023/10/17 01:03:16;;;;;;;5.45;1.98;;;;;;;8.44;54.85;97244.22;4958332;28;20160;-80
2023/10/17 01:05:57;;;;;;;4.60;1.90;;;;;;;8.48;54.53;97233.38;4968734;28;20247;-80
2023/10/17 01:08:36;;;;;;;3.25;1.80;;;;;;;8.38;55.19;97231.34;4947430;28;20190;-80
2023/10/17 01:11:08;;;;;;;2.85;2.10;;;;;;;8.16;55.51;97249.31;4931486;28;20307;-80
2023/10/17 01:13:37;;;;;;;3.67;1.90;;;;;;;8.07;55.77;97247.06;4940711;28;20210;-81
2023/10/17 01:16:09;;;;;;;2.53;1.80;;;;;;;8.19;55.78;97246.25;4957045;28;20341;-81
2023/10/17 01:18:34;;;;;;;3.95;2.20;;;;;;;8.12;55.92;97238.56;4937342;28;20325;-81
2023/10/17 01:21:00;;;;;;;3.42;2.25;;;;;;;8.07;55.73;97234.09;4953148;28;20291;-81
2023/10/17 01:23:27;;;;;;;4.55;2.63;;;;;;;8.11;55.25;97244.78;4952410;28;20230;-82
2023/10/17 01:25:52;;;;;;;5.55;3.05;;;;;;;8.11;55.45;97241.41;4959464;28;20395;-80
2023/10/17 01:28:18;;;;;;;5.72;3.30;;;;;;;8.16;55.87;97246.72;4963907;28;20384;-81
2023/10/17 01:30:43;;;;;;;4.28;2.97;;;;;;;8.11;55.85;97246.63;4959128;28;20210;-80
2023/10/17 01:33:08;;;;;;;5.47;3.00;;;;;;;8.02;56.26;97239.16;4929450;28;20277;-80
2023/10/17 01:35:36;;;;;;;6.45;2.75;;;;;;;8.07;55.77;97236.69;4942685;28;20227;-80
2023/10/17 01:38:01;;;;;;;5.22;2.75;;;;;;;8.02;56.25;97230.56;4941022;28;20316;-81
2023/10/17 01:40:26;;;;;;;5.53;2.75;;;;;;;8.01;56.15;97222.03;4958529;28;20360;-81
2023/10/17 01:42:54;;;;;;;3.95;2.40;;;;;;;8.06;56.04;97235.09;4961467;28;20394;-81
2023/10/17 01:45:25;;;;;;;3.75;2.33;;;;;;;7.98;56.02;97240.63;4945814;28;20629;-81
2023/10/17 01:47:51;;;;;;;3.80;2.22;;;;;;;7.99;56.42;97244.78;4964755;28;20708;-80
2023/10/17 01:50:18;;;;;;;3.78;2.47;;;;;;;7.95;56.00;97233.31;4944520;28;20168;-81
2023/10/17 01:52:47;;;;;;;4.70;2.42;;;;;;;7.86;56.35;97219.09;4945850;28;20273;-80
2023/10/17 01:55:15;;;;;;;3.28;2.17;;;;;;;7.92;56.57;97219.97;4942929;28;20361;-79
2023/10/17 01:57:44;;;;;;;3.75;2.50;;;;;;;7.84;56.75;97208.16;4946237;28;20237;-79
2023/10/17 02:00:37;;;;;;;7.13;3.03;;;;;;;8.04;56.39;97215.59;4961906;28;20169;-79
2023/10/17 02:03:05;;;;;;;4.50;3.10;;;;;;;7.98;55.84;97209.50;4959396;28;20700;-81
2023/10/17 02:05:31;;;;;;;5.32;3.05;;;;;;;7.95;55.83;97194.41;4964952;28;20141;-81
2023/10/17 02:07:56;;;;;;;4.60;2.97;;;;;;;7.94;56.26;97194.66;4947463;28;20171;-81
2023/10/17 02:10:24;;;;;;;5.75;3.28;;;;;;;7.96;56.08;97213.34;4947826;28;21022;-81
2023/10/17 02:12:49;;;;;;;8.27;4.22;;;;;;;7.78;56.47;97201.28;4935569;28;20553;-81
2023/10/17 02:15:24;;;;;;;5.57;3.65;;;;;;;7.85;56.04;97207.16;4965490;28;20202;-81
2023/10/17 02:17:51;;;;;;;5.25;3.20;;;;;;;7.95;55.77;97228.13;4966298;28;20283;-80
2023/10/17 02:20:29;;;;;;;;;;;;;;;;;;;;;
2023/10/17 02:22:51;;;;;;;5.55;3.10;;;;;;;7.73;56.35;97227.88;4968121;28;20210;-81
2023/10/17 02:25:21;;;;;;;3.50;2.10;;;;;;;7.75;56.75;97223.25;4960146;28;20320;-80
2023/10/17 02:27:47;;;;;;;4.53;1.92;;;;;;;7.77;56.58;97230.81;4927781;28;20333;-81
2023/10/17 02:30:14;;;;;;;4.90;2.40;;;;;;;7.77;56.33;97225.63;4949855;28;20645;-80
2023/10/17 02:32:44;;;;;;;4.97;2.08;;;;;;;7.84;56.45;97234.88;4943248;28;20648;-80
2023/10/17 02:35:14;;;;;;;2.88;1.70;;;;;;;7.90;56.59;97235.78;4932884;28;20196;-80
2023/10/17 02:37:43;;;;;;;3.28;1.80;;;;;;;7.91;56.12;97234.75;4950503;28;20257;-81
2023/10/17 02:40:21;;;;;;;4.10;1.70;;;;;;;8.02;55.72;97233.16;4954287;28;20266;-81
2023/10/17 02:42:49;;;;;;;2.42;1.60;;;;;;;8.13;55.12;97244.56;4936036;28;20687;-81
2023/10/17 02:45:24;;;;;;;2.85;1.40;;;;;;;8.05;55.23;97253.47;4991584;23;20231;-82
2023/10/17 02:47:54;;;;;;;4.05;1.75;;;;;;;8.11;55.40;97239.63;4963141;28;20200;-81
2023/10/17 02:52:58;;;;;;;3.45;1.77;;;;;;;8.17;55.42;97240.50;4959533;28;20158;-82
2023/10/17 02:55:26;;;;;;;4.00;2.00;;;;;;;8.06;55.43;97242.88;4942894;28;20243;-82
2023/10/17 02:57:54;;;;;;;3.35;2.00;;;;;;;8.07;55.25;97236.69;4966564;28;20195;-82
2023/10/17 03:00:33;;;;;;;3.60;2.03;;;;;;;8.06;55.18;97229.13;4943457;28;20723;-83
2023/10/17 03:02:59;;;;;;;4.05;1.80;;;;;;;8.05;55.16;97227.53;4924314;28;20296;-82
2023/10/17 03:05:27;;;;;;;4.85;2.83;;;;;;;8.02;55.15;97223.59;4948381;28;20192;-83
2023/10/17 03:07:52;;;;;;;5.57;3.20;;;;;;;7.84;55.69;97210.75;4944430;28;20419;-82
2023/10/17 03:10:37;;;;;;;4.18;2.80;;;;;;;7.87;55.15;97223.28;4951274;28;20293;-83
2023/10/17 03:13:06;;;;;;;;;;;;;;;7.94;55.56;97223.16;4956797;28;20168;-82
2023/10/17 03:15:37;;;;;;;2.78;2.03;;;;;;;7.73;56.09;97216.72;4952958;28;20099;-80
2023/10/17 03:18:03;;;;;;;3.72;2.42;;;;;;;7.71;56.28;97210.97;4918883;28;20634;-81
2023/10/17 03:20:41;;;;;;;2.95;2.10;;;;;;;7.69;55.92;97196.44;4935557;28;20149;-80
2023/10/17 03:23:10;;;;;;;3.53;1.90;;;;;;;7.77;56.13;97191.94;4954678;28;20106;-80
2023/10/17 03:25:39;;;;;;;3.47;2.22;;;;;;;7.73;55.91;97198.56;4938061;28;20236;-81
2023/10/17 03:28:13;;;;;;;3.63;2.20;;;;;;;7.81;55.95;97195.66;4936598;28;20639;-81
2023/10/17 03:30:38;;;;;;;4.40;2.15;;;;;;;7.86;55.98;97195.75;4935040;28;20630;-82
2023/10/17 03:35:35;;;;;;;2.70;1.83;;;;;;;8.06;55.21;97192.81;4948580;28;20538;-83
2023/10/17 03:38:03;;;;;;;4.32;2.00;;;;;;;8.04;55.56;97180.09;4930388;28;20203;-83
2023/10/17 03:40:50;;;;;;;2.17;1.80;;;;;;;8.09;55.00;97181.19;4928300;28;20600;-83
2023/10/17 03:43:21;;;;;;;3.28;2.17;;;;;;;8.05;54.71;97176.50;4951524;28;20230;-80
2023/10/17 03:45:53;;;;;;;5.00;2.53;;;;;;;8.06;55.19;97177.28;4937942;28;20622;-81
2023/10/17 03:48:20;;;;;;;4.32;1.95;;;;;;;8.00;54.90;97163.41;4939101;28;20203;-81
2023/10/17 03:55:48;;;;;;;6.53;3.38;;;;;;;7.81;55.85;97186.09;4961997;28;20287;-81
2023/10/17 04:01:10;;;;;;;4.10;2.25;;;;;;;7.85;55.65;97183.84;4995985;22;20649;-81
2023/10/17 04:03:36;;;;;;;3.03;2.40;;;;;;;7.68;55.79;97171.53;4945300;28;20063;-79
2023/10/17 04:08:37;;;;;;;3.38;2.28;;;;;;;7.96;55.61;97162.28;4961203;28;20126;-83
2023/10/17 04:11:17;;;;;;;5.07;2.50;;;;;;;7.91;55.15;97156.97;4946543;28;20248;-82
2023/10/17 04:13:44;;;;;;;6.00;3.42;;;;;;;8.01;55.50;97179.75;4984333;28;20196;-81
2023/10/17 04:16:10;;;;;;;3.95;2.83;;;;;;;7.99;55.25;97174.78;4966866;28;20199;-82
2023/10/17 04:18:37;;;;;;;5.72;3.00;;;;;;;7.98;55.17;97173.19;4968535;28;20202;-82
2023/10/17 04:21:18;;;;;;;6.25;2.70;;;;;;;7.98;55.44;97186.16;4974107;28;20172;-81
2023/10/17 04:23:44;;;;;;;3.35;2.08;;;;;;;7.86;55.35;97178.44;4935478;28;20303;-81
2023/10/17 04:26:17;;;;;;;3.55;2.05;;;;;;;7.86;55.98;97182.81;5032413;22;20222;-83
2023/10/17 04:28:49;;;;;;;2.88;2.17;;;;;;;7.80;55.56;97183.72;5017197;23;20223;-82
2023/10/17 04:31:25;;;;;;;3.03;2.05;;;;;;;7.81;55.85;97180.09;4976790;28;20266;-83
2023/10/17 04:34:05;;;;;;;4.00;2.13;;;;;;;7.96;55.48;97193.38;4941789;28;20161;-82
2023/10/17 04:36:38;;;;;;;5.07;1.88;;;;;;;7.91;55.87;97195.88;4945742;28;20082;-81
2023/10/17 04:41:48;;;;;;;4.80;2.13;;;;;;;7.92;55.48;97181.91;5050905;23;20147;-80
2023/10/17 04:44:17;;;;;;;4.88;2.15;;;;;;;7.89;55.67;97192.72;4978379;23;20049;-82
2023/10/17 04:49:28;;;;;;;2.08;1.60;;;;;;;7.77;55.93;97203.09;4948379;28;20237;-80
2023/10/17 04:52:19;;;;;;;3.25;2.08;;;;;;;7.73;56.16;97196.78;4957037;28;20192;-79
2023/10/17 04:54:39;;;;;;;;;;;;;;;8.04;55.63;97185.28;4966807;28;20219;-80
2023/10/17 04:57:09;;;;;;;3.58;1.58;;;;;;;7.98;55.76;97201.72;4948473;28;20303;-80
2023/10/17 05:05:38;;;;;;;9.38;6.30;;;;;;;7.69;56.80;97199.03;4962429;28;20203;-82
2023/10/17 06:18:50;;;;;;;4.68;3.38;;;;;;;8.16;55.56;97166.31;4945478;28;20274;-83
2023/10/17 06:21:19;;;;;;;4.25;2.90;;;;;;;8.24;55.45;97178.91;4963347;28;20127;-83
2023/10/17 06:34:16;;;;;;;4.03;2.60;;;;;;;8.35;55.43;97196.28;4951261;28;20656;-83
2023/10/17 06:36:43;;;;;;;4.05;2.20;;;;;;;8.28;55.64;97189.63;4963561;28;20423;-83
2023/10/17 06:39:19;;;;;;;4.80;2.40;;;;;;;8.29;55.77;97197.19;4961030;28;20260;-84
2023/10/17 06:41:48;;;;;;;3.33;2.20;;;;;;;8.38;55.54;97189.81;4984563;28;20521;-83
2023/10/17 06:44:23;;;;;;;3.58;2.05;;;;;;;8.32;55.62;97199.31;4950866;28;20172;-84
2023/10/17 06:46:56;;;;;;;3.88;2.45;;;;;;;8.40;56.20;97195.59;4950698;28;20191;-83
2023/10/17 06:54:52;;;;;;;2.70;1.77;;;;;;;8.25;56.09;97196.84;4962524;28;20175;-83
2023/10/17 06:57:24;;;;;;;3.80;2.50;;;;;;;8.14;56.60;97186.50;4960358;28;20238;-84
2023/10/17 06:59:54;;;;;;;3.50;2.20;;;;;;;8.28;56.67;97190.44;4939477;28;20128;-84
2023/10/17 07:02:29;;;;;;;4.93;2.10;;;;;;;8.30;56.24;97192.78;4978837;28;20075;-82
2023/10/17 07:04:55;;;;;;;4.25;1.98;;;;;;;8.31;56.67;97194.34;4963028;28;20177;-82
2023/10/17 07:07:24;;;;;;;4.25;2.30;;;;;;;8.37;56.59;97173.47;4953405;28;20281;-84
2023/10/17 07:09:53;;;;;;;4.25;2.17;;;;;;;8.48;56.55;97184.09;4950784;28;20241;-84
2023/10/17 07:12:20;;;;;;;5.18;2.30;;;;;;;8.59;55.77;97185.88;4949305;28;20189;-84
2023/10/17 07:14:49;;;;;;;3.03;2.08;;;;;;;8.64;55.82;97180.78;4953243;28;20496;-84
2023/10/17 07:17:25;;;;;;;4.63;2.45;;;;;;;8.68;55.88;97181.88;4952612;28;20268;-82
2023/10/17 07:20:12;;;;;;;3.22;2.42;;;;;;;8.74;55.73;97185.34;4960849;28;20161;-84
2023/10/17 07:22:40;;;;;;;4.20;2.72;;;;;;;8.85;55.39;97175.94;4967684;28;20164;-83
2023/10/17 07:25:16;;;;;;;6.05;2.90;;;;;;;8.97;54.81;97187.06;4949518;28;20091;-84
2023/10/17 07:27:44;;;;;;;6.68;2.95;;;;;;;8.95;54.93;97173.53;4948662;28;20211;-84
2023/10/17 07:30:13;;;;;;;5.30;2.95;;;;;;;9.02;54.74;97188.97;4954929;28;20047;-83
2023/10/17 07:32:49;;;;;;;7.60;4.15;;;;;;;9.05;54.96;97186.69;5016042;23;20163;-83
2023/10/17 07:35:36;;;;;;;7.85;2.90;;;;;;;9.08;54.41;97201.00;4935946;28;20141;-81
2023/10/17 07:38:04;;;;;;;3.90;2.60;;;;;;;9.14;54.55;97192.28;4949647;28;20706;-82
2023/10/17 07:40:33;;;;;;;3.88;2.60;;;;;;;9.16;54.70;97203.22;4969637;28;20194;-81
2023/10/17 07:43:04;;;;;;;4.47;1.98;;;;;;;9.17;54.25;97200.41;4968179;28;20188;-83
2023/10/17 07:45:37;;;;;;;2.80;2.10;;;;;;;9.34;54.27;97203.03;4957832;28;20757;-83
2023/10/17 07:48:04;;;;;;;2.90;2.20;;;;;;;9.28;54.08;97203.94;4969236;28;20098;-81
2023/10/17 07:50:32;;;;;;;2.95;1.73;;;;;;;9.27;54.41;97202.38;4952434;28;20272;-82
2023/10/17 07:53:05;;;;;;;3.45;2.30;;;;;;;9.22;54.48;97199.72;4954196;28;20194;-83
2023/10/17 07:55:36;;;;;;;2.63;1.90;;;;;;;9.47;53.65;97199.31;4966058;28;20630;-83
2023/10/17 07:58:09;;;;;;;3.28;2.58;;;;;;;9.52;53.98;97209.00;4938716;28;20207;-82
2023/10/17 08:00:38;;;;;;;2.60;1.77;;;;;;;9.65;53.67;97205.31;4959669;28;20744;-83
2023/10/17 08:03:15;;;;;;;3.92;2.15;;;;;;;9.56;53.88;97208.31;4939099;28;20653;-82
2023/10/17 08:06:22;;;;;;;3.28;1.88;;;;;;;9.45;54.07;97206.56;4933574;28;20647;-82
2023/10/17 08:08:44;;;;;;;4.75;2.40;;;;;;;9.51;54.51;97208.22;4931144;28;20240;-82
2023/10/17 08:13:57;;;;;;;2.77;2.17;;;;;;;9.55;54.15;97213.75;4938631;28;20207;-82
2023/10/17 08:16:29;;;;;;;4.50;2.67;;;;;;;9.44;54.91;97215.41;4936081;28;20181;-81
2023/10/17 08:18:59;;;;;;;2.72;2.45;;;;;;;9.40;54.45;97210.91;4944853;28;20211;-81
2023/10/17 08:24:00;;;;;;;3.40;2.20;;;;;;;9.47;54.49;97207.09;4929605;28;20197;-82
2023/10/17 08:26:29;;;;;;;3.90;2.08;;;;;;;9.55;54.53;97211.13;4944628;28;20633;-81
2023/10/17 08:28:56;;;;;;;3.95;2.10;;;;;;;9.49;55.06;97214.66;4947575;28;20687;-80
2023/10/17 08:32:02;;;;;;;5.43;2.75;;;;;;;9.49;55.35;97194.69;4944264;28;20639;-82
2023/10/17 08:34:15;;;;;;;5.30;3.35;;;;;;;9.71;54.72;97212.94;4957373;28;20199;-83
2023/10/17 08:39:26;;;;;;;5.35;3.28;;;;;;;9.77;54.40;97207.81;4946932;28;20295;-81
2023/10/17 08:42:05;;;;;;;5.05;3.05;;;;;;;9.92;54.58;97208.03;4944176;28;20188;-81
2023/10/17 08:44:34;;;;;;;4.30;2.60;;;;;;;10.02;53.98;97212.59;4933289;28;20188;-81
2023/10/17 08:47:03;;;;;;;5.50;2.75;;;;;;;9.83;54.82;97205.03;4955659;28;20084;-81
2023/10/17 08:49:29;;;;;;;3.17;1.95;;;;;;;9.79;54.85;97198.75;4916385;28;20169;-82
2023/10/17 08:51:57;;;;;;;4.13;2.30;;;;;;;9.70;55.00;97177.56;5089471;22;20232;-83
2023/10/17 08:54:28;;;;;;;4.10;2.88;;;;;;;9.82;54.84;97190.50;4976288;28;20305;-82
2023/10/17 08:56:54;;;;;;;3.15;2.03;;;;;;;10.16;54.66;97203.44;4952189;28;20290;-81
2023/10/17 09:04:53;;;;;;;5.88;3.10;;;;;;;10.37;53.64;97204.50;4959971;28;20266;-80
2023/10/17 09:07:31;;;;;;;3.97;2.75;;;;;;;10.42;53.04;97209.00;4938482;28;20275;-81
2023/10/17 09:10:04;;;;;;;4.47;2.38;;;;;;;10.51;53.48;97191.13;4950198;28;20777;-81
2023/10/17 09:12:36;;;;;;;5.45;2.58;;;;;;;10.45;53.38;97211.09;4933438;28;20264;-80
2023/10/17 09:15:04;;;;;;;3.95;2.60;;;;;;;10.61;53.10;97210.25;4965299;28;20244;-81
2023/10/17 09:17:30;;;;;;;6.82;2.55;;;;;;;10.71;53.29;97209.59;4920191;28;20701;-81
2023/10/17 09:20:05;;;;;;;3.28;2.35;;;;;;;10.93;52.54;97217.34;4913939;28;20277;-81
2023/10/17 09:22:30;;;;;;;3.75;2.33;;;;;;;11.04;52.21;97219.03;4935735;28;20351;-80
2023/10/17 09:24:59;;;;;;;5.47;2.63;;;;;;;11.17;52.78;97197.00;4963361;28;20153;-80
2023/10/17 09:27:27;;;;;;;4.10;3.00;;;;;;;11.23;52.49;97197.84;4946659;28;20273;-78
2023/10/17 09:29:58;;;;;;;5.10;2.60;;;;;;;11.01;51.52;97209.09;4932793;28;20317;-80
2023/10/17 09:32:34;;;;;;;2.67;1.95;;;;;;;11.18;51.39;97210.81;4944472;28;20200;-80
2023/10/17 09:35:04;;;;;;;;;;;;;;;11.23;51.49;97221.28;4968427;28;20139;-81
2023/10/17 09:37:29;;;;;;;5.85;2.63;;;;;;;11.01;51.71;97219.50;4959202;28;20056;-79
2023/10/17 09:39:56;;;;;;;4.13;2.47;;;;;;;11.38;50.94;97226.63;4957095;28;20291;-81
2023/10/17 09:42:21;;;;;;;3.92;2.72;;;;;;;11.23;50.67;97231.72;4971916;28;21387;-81
2023/10/17 09:44:46;;;;;;;5.78;3.40;;;;;;;11.26;50.99;97223.41;4923503;28;20252;-81
2023/10/17 09:47:13;;;;;;;3.25;2.45;;;;;;;11.59;50.63;97222.38;4947963;28;20543;-82
2023/10/17 09:49:44;;;;;;;4.63;2.28;;;;;;;11.71;50.98;97216.97;4997567;23;20264;-82
2023/10/17 09:52:10;;;;;;;4.10;2.80;;;;;;;11.76;50.54;97221.44;4938372;28;20261;-82
2023/10/17 09:54:40;;;;;;;3.83;2.55;;;;;;;11.91;50.73;97205.13;4968600;28;20202;-83
2023/10/17 09:57:12;;;;;;;4.03;2.40;;;;;;;12.01;49.72;97209.63;4966438;28;20101;-82
2023/10/17 09:59:41;;;;;;;4.45;2.75;;;;;;;12.18;49.83;97215.47;4964269;28;20249;-82
2023/10/17 10:02:08;;;;;;;4.95;2.70;;;;;;;12.08;49.59;97200.56;4939238;28;20214;-81
2023/10/17 10:04:34;;;;;;;3.28;2.10;;;;;;;12.17;49.34;97200.84;4940694;28;20195;-82
2023/10/17 10:07:19;;;;;;;4.07;2.70;;;;;;;12.39;49.22;97208.53;4962227;28;20243;-80
2023/10/17 10:09:44;;;;;;;6.43;2.47;;;;;;;12.32;48.73;97207.97;4934933;28;20210;-80
2023/10/17 10:12:10;;;;;;;5.30;3.38;;;;;;;12.12;49.17;97206.81;4963885;28;20262;-81
2023/10/17 10:14:39;;;;;;;4.65;2.67;;;;;;;12.28;48.54;97210.28;4932627;28;20305;-79
2023/10/17 10:17:04;;;;;;;3.95;2.60;;;;;;;12.39;49.24;97198.09;4957609;28;20233;-79
2023/10/17 10:19:42;;;;;;;5.53;2.58;;;;;;;12.49;48.04;97211.19;4947871;28;20216;-79
2023/10/17 10:22:10;;;;;;;4.00;2.83;;;;;;;12.33;49.27;97214.75;4950191;28;20199;-79
2023/10/17 10:24:37;;;;;;;4.93;2.65;;;;;;;12.40;49.02;97217.16;4959497;28;20319;-79
2023/10/17 10:27:08;;;;;;;3.75;2.67;;;;;;;12.54;48.89;97202.56;4946185;28;20527;-81
2023/10/17 10:29:34;;;;;;;3.72;2.30;;;;;;;12.46;48.65;97203.84;4966794;28;20123;-81
2023/10/17 10:32:05;;;;;;;5.15;2.42;;;;;;;12.43;48.84;97203.59;4966438;28;20292;-80
2023/10/17 10:34:35;;;;;;;4.85;2.53;;;;;;;12.43;48.31;97191.31;4957948;28;20214;-79
2023/10/17 10:37:03;;;;;;;3.67;2.20;;;;;;;12.50;48.49;97201.53;4949676;28;20266;-82
2023/10/17 10:39:30;;;;;;;3.58;2.28;;;;;;;12.40;48.71;97194.41;4951991;28;20354;-81
2023/10/17 10:42:06;;;;;;;3.90;2.40;;;;;;;12.55;48.44;97184.03;4959293;28;20272;-80
2023/10/17 10:44:41;;;;;;;2.92;2.25;;;;;;;12.35;48.38;97189.97;4948985;28;20311;-80
2023/10/17 10:47:07;;;;;;;5.07;2.70;;;;;;;12.46;48.06;97200.47;4939259;28;20515;-82
2023/10/17 10:49:33;;;;;;;3.67;2.58;;;;;;;12.50;48.07;97191.06;4975431;28;20243;-80
2023/10/17 10:51:58;;;;;;;4.57;3.05;;;;;;;12.57;47.88;97170.72;4932993;28;20183;-80
2023/10/17 10:54:50;;;;;;;3.35;2.65;;;;;;;12.76;47.22;97178.88;4946953;28;20227;-81
2023/10/17 10:57:26;;;;;;;3.97;2.83;;;;;;;12.93;47.66;97176.81;4934865;28;20206;-81
2023/10/17 10:59:52;;;;;;;5.28;2.80;;;;;;;12.78;47.04;97166.31;4938686;28;20192;-80
2023/10/17 11:02:20;;;;;;;4.47;2.80;;;;;;;12.92;47.80;97167.41;4967223;28;20566;-80
2023/10/17 11:04:47;;;;;;;4.63;2.75;;;;;;;12.98;47.03;97154.34;4951779;28;20202;-81
2023/10/17 11:07:23;;;;;;;3.08;2.65;;;;;;;13.13;47.20;97164.03;4953174;28;20383;-81
2023/10/17 11:10:06;;;;;;;4.97;2.85;;;;;;;13.22;46.77;97160.63;4958163;28;20025;-80
2023/10/17 11:12:35;;;;;;;3.47;2.40;;;;;;;13.13;46.97;97140.50;4947067;28;20690;-81
2023/10/17 11:15:16;;;;;;;4.53;3.33;;;;;;;13.06;46.62;97141.53;4930569;28;20699;-80
2023/10/17 11:17:42;;;;;;;5.50;2.92;;;;;;;13.00;46.32;97152.25;4959299;28;20244;-82
2023/10/17 11:20:15;;;;;;;3.88;2.40;;;;;;;13.42;46.17;97148.63;4939087;28;20307;-81
2023/10/17 11:22:42;;;;;;;5.57;2.90;;;;;;;13.65;45.39;97148.06;4942748;28;20148;-82
2023/10/17 11:25:13;;;;;;;3.88;2.53;;;;;;;13.94;44.56;97144.09;4980993;28;20180;-80
2023/10/17 11:27:41;;;;;;;4.22;2.70;;;;;;;14.00;44.24;97138.56;4957911;28;20302;-80
2023/10/17 11:30:07;;;;;;;3.10;2.55;;;;;;;14.04;44.29;97142.22;4949528;28;20969;-82
2023/10/17 11:32:39;;;;;;;3.83;3.08;;;;;;;14.26;43.74;97135.88;4964700;28;20192;-83
2023/10/17 11:35:19;;;;;;;3.35;2.30;;;;;;;14.60;43.42;97137.81;4955039;28;20256;-80
2023/10/17 11:37:46;;;;;;;5.05;2.45;;;;;;;14.64;42.63;97130.97;4931400;28;20312;-80
2023/10/17 11:40:29;;;;;;;3.45;3.15;;;;;;;14.51;43.59;97121.06;4926835;28;20605;-80
2023/10/17 11:42:56;;;;;;;5.97;3.80;;;;;;;14.54;43.62;97131.78;4944688;28;20205;-80
2023/10/17 11:45:25;;;;;;;4.45;3.33;;;;;;;14.70;43.30;97126.47;4959357;28;20531;-81
2023/10/17 11:47:51;;;;;;;2.92;2.60;;;;;;;14.65;43.62;97131.75;4930366;28;20187;-80
2023/10/17 11:50:31;;;;;;;5.57;2.80;;;;;;;14.68;43.99;97134.59;4958541;28;20212;-80
2023/10/17 11:53:09;;;;;;;3.85;2.47;;;;;;;14.70;43.17;97143.00;4952864;28;20130;-80
2023/10/17 11:55:47;;;;;;;3.90;2.72;;;;;;;14.77;43.97;97135.63;4978233;28;20191;-80
2023/10/17 11:58:25;;;;;;;3.70;2.53;;;;;;;14.70;43.20;97142.19;4933102;28;20732;-80
2023/10/17 12:00:53;;;;;;;5.47;2.55;;;;;;;14.59;43.56;97141.50;4961861;28;20690;-80
2023/10/17 12:03:23;;;;;;;4.90;3.38;;;;;;;14.56;43.05;97142.00;4952330;28;20191;-79
2023/10/17 12:05:49;;;;;;;4.60;2.70;;;;;;;14.63;42.75;97145.13;4946624;28;20717;-80
2023/10/17 12:08:29;;;;;;;3.83;3.42;;;;;;;14.65;43.26;97140.41;4929778;28;20310;-80
2023/10/17 12:10:55;;;;;;;5.20;3.53;;;;;;;14.54;43.09;97136.25;4945314;28;20276;-81
2023/10/17 12:13:20;;;;;;;3.53;2.95;;;;;;;14.22;43.90;97134.81;4961201;28;20177;-81
2023/10/17 12:15:46;;;;;;;4.95;2.60;;;;;;;14.37;43.49;97126.88;4949088;28;20198;-81
2023/10/17 12:18:14;;;;;;;4.15;2.90;;;;;;;14.58;43.73;97126.78;4961505;28;20105;-80
2023/10/17 12:20:42;;;;;;;4.85;2.85;;;;;;;14.53;43.47;97121.56;4965564;28;20755;-81
2023/10/17 12:23:11;;;;;;;2.88;2.20;;;;;;;14.41;43.06;97121.88;4957933;28;20218;-80
2023/10/17 12:25:37;;;;;;;3.55;2.80;;;;;;;14.41;43.95;97130.56;4946020;28;20204;-80
2023/10/17 12:28:06;;;;;;;3.63;2.58;;;;;;;14.52;43.06;97125.25;4945924;28;20824;-82
2023/10/17 12:30:36;;;;;;;3.33;2.70;;;;;;;14.56;42.74;97115.78;4922674;28;20243;-79
2023/10/17 12:33:02;;;;;;;4.18;2.53;;;;;;;14.59;43.87;97120.53;4947952;28;20477;-81
2023/10/17 12:35:28;;;;;;;5.05;4.00;;;;;;;14.66;43.24;97115.00;4945594;28;20421;-79
2023/10/17 12:37:57;;;;;;;3.53;3.13;;;;;;;14.77;43.35;97105.97;4960201;28;20278;-81
2023/10/17 12:40:23;;;;;;;4.45;2.85;;;;;;;14.49;43.50;97096.97;4963042;28;20279;-79
2023/10/17 12:42:50;;;;;;;3.28;2.53;;;;;;;14.59;43.49;97096.94;4962883;28;20187;-80
2023/10/17 12:45:15;;;;;;;3.10;2.50;;;;;;;14.71;43.85;97089.53;4963493;28;20298;-80
2023/10/17 12:47:45;;;;;;;4.90;3.47;;;;;;;14.65;43.26;97067.03;4964756;28;20172;-80
2023/10/17 12:50:15;;;;;;;6.03;2.75;;;;;;;14.84;43.43;97074.22;4958384;28;20615;-81
2023/10/17 12:52:41;;;;;;;7.03;4.82;;;;;;;14.97;43.63;97081.47;4957895;28;20670;-80
2023/10/17 12:55:11;;;;;;;4.50;3.13;;;;;;;14.81;43.66;97078.19;4964223;28;20191;-83
2023/10/17 12:57:38;;;;;;;3.35;2.53;;;;;;;14.88;43.38;97073.41;4927139;28;20211;-80
2023/10/17 13:00:09;;;;;;;4.78;3.30;;;;;;;15.00;43.26;97069.66;4939020;28;20543;-79
2023/10/17 13:02:38;;;;;;;3.05;2.67;;;;;;;15.03;43.30;97062.03;4927644;28;20203;-82
2023/10/17 13:05:09;;;;;;;5.88;2.90;;;;;;;15.08;42.54;97072.47;4945234;28;20214;-81
2023/10/17 13:07:36;;;;;;;3.83;2.55;;;;;;;15.14;43.27;97081.06;4956620;28;20284;-80
2023/10/17 13:10:02;;;;;;;5.57;3.83;;;;;;;15.09;43.25;97068.78;4956326;28;20208;-81
2023/10/17 13:12:27;;;;;;;4.15;3.08;;;;;;;14.94;42.85;97071.53;4969130;28;20211;-80
2023/10/17 13:14:53;;;;;;;3.92;3.17;;;;;;;14.73;42.90;97073.53;4929354;28;20087;-81
2023/10/17 13:17:18;;;;;;;6.95;5.57;;;;;;;14.82;43.43;97073.72;4945918;28;20262;-81
2023/10/17 13:19:45;;;;;;;6.20;4.00;;;;;;;14.83;42.71;97070.06;4966413;28;20173;-80
2023/10/17 13:22:16;;;;;;;5.55;3.58;;;;;;;14.79;43.41;97067.97;4948216;28;20691;-80
2023/10/17 13:24:43;;;;;;;4.45;3.15;;;;;;;14.88;43.03;97067.41;4942363;28;20593;-80
2023/10/17 13:27:09;;;;;;;4.85;3.00;;;;;;;14.79;43.07;97059.34;4946367;28;20363;-80
2023/10/17 13:29:34;;;;;;;3.83;2.90;;;;;;;14.84;42.96;97061.13;4961106;28;20394;-80
2023/10/17 13:32:00;;;;;;;4.78;3.50;;;;;;;14.97;43.18;97069.13;4944172;28;20159;-81
2023/10/17 13:34:28;;;;;;;3.70;3.03;;;;;;;14.95;43.21;97057.38;4952448;28;20137;-81
2023/10/17 13:36:53;;;;;;;4.95;2.83;;;;;;;15.03;43.31;97062.03;4940569;28;20234;-80
2023/10/17 13:39:22;;;;;;;6.22;4.18;;;;;;;15.11;42.71;97061.44;4961959;28;20290;-81
2023/10/17 13:41:48;;;;;;;6.40;3.92;;;;;;;14.91;43.24;97048.50;4948183;28;20326;-80
2023/10/17 13:44:15;;;;;;;5.75;3.03;;;;;;;15.01;42.88;97053.66;4935572;28;20206;-79
2023/10/17 13:46:41;;;;;;;3.83;3.05;;;;;;;14.88;43.08;97043.81;4964062;28;20685;-81
2023/10/17 13:49:08;;;;;;;3.65;3.22;;;;;;;14.91;43.55;97051.13;4947031;28;20653;-79
2023/10/17 13:51:34;;;;;;;4.70;3.08;;;;;;;14.87;43.42;97050.88;4931313;28;20207;-79
2023/10/17 13:54:00;;;;;;;4.30;3.45;;;;;;;14.74;43.01;97041.03;4945549;28;20242;-80
2023/10/17 13:56:27;;;;;;;5.30;3.33;;;;;;;14.78;43.28;97040.19;4940104;28;20145;-80
2023/10/17 13:58:52;;;;;;;4.93;3.40;;;;;;;14.77;42.56;97040.47;4945189;28;20242;-80
2023/10/17 14:01:27;;;;;;;4.10;3.00;;;;;;;14.75;42.93;97035.53;4948893;28;20202;-80